createdAt,value
2019-05-12T00:00:24.455Z,67.03
2019-05-12T00:01:24.438Z,67.24
2019-05-12T00:02:24.432Z,66.80
2019-05-12T00:03:24.423Z,67.00
2019-05-12T00:04:24.430Z,66.83
2019-05-12T00:05:24.488Z,66.60
2019-05-12T00:06:24.397Z,66.90
2019-05-12T00:07:24.369Z,67.24
2019-05-12T00:08:24.459Z,67.86
2019-05-12T00:09:24.474Z,67.65
2019-05-12T00:10:24.348Z,67.76
2019-05-12T00:11:24.373Z,67.65
2019-05-12T00:12:24.328Z,67.55
2019-05-12T00:13:24.390Z,67.24
2019-05-12T00:14:24.299Z,67.55
2019-05-12T00:15:24.308Z,67.96
2019-05-12T00:16:24.272Z,67.86
2019-05-12T00:17:24.259Z,67.86
2019-05-12T00:18:24.505Z,67.96
2019-05-12T00:19:24.257Z,68.19
2019-05-12T00:20:24.222Z,67.89
2019-05-12T00:21:24.511Z,68.40
2019-05-12T00:22:24.201Z,68.61
2019-05-12T00:23:27.952Z,68.81
2019-05-12T00:24:25.186Z,68.40
2019-05-12T00:25:24.170Z,68.61
2019-05-12T00:26:24.163Z,68.71
2019-05-12T00:27:24.256Z,68.81
2019-05-12T00:28:24.135Z,69.26
2019-05-12T00:29:24.145Z,69.02
2019-05-12T00:30:24.112Z,69.56
2019-05-12T00:31:24.103Z,69.15
2019-05-12T00:32:24.111Z,69.46
2019-05-12T00:33:24.177Z,69.26
2019-05-12T00:34:24.067Z,69.12
2019-05-12T00:35:24.097Z,68.74
2019-05-12T00:36:24.143Z,69.26
2019-05-12T00:37:24.050Z,69.26
2019-05-12T00:38:24.068Z,69.56
2019-05-12T00:39:24.034Z,69.77
2019-05-12T00:40:24.001Z,68.74
2019-05-12T00:41:24.079Z,69.46
2019-05-12T00:42:24.977Z,68.74
2019-05-12T00:43:23.971Z,69.05
2019-05-12T00:44:23.970Z,69.56
2019-05-12T00:45:23.956Z,69.39
2019-05-12T00:46:23.953Z,69.46
2019-05-12T00:47:24.014Z,69.49
2019-05-12T00:48:23.936Z,69.67
2019-05-12T00:49:23.914Z,69.60
2019-05-12T00:50:23.903Z,69.70
2019-05-12T00:51:24.466Z,69.26
2019-05-12T00:52:23.889Z,69.29
2019-05-12T00:53:36.144Z,69.56
2019-05-12T00:54:24.863Z,69.18
2019-05-12T00:55:23.853Z,69.67
2019-05-12T00:56:23.860Z,70.11
2019-05-12T00:57:23.871Z,70.32
2019-05-12T00:58:23.882Z,70.21
2019-05-12T00:59:23.838Z,69.94
2019-05-12T01:00:23.778Z,70.32
2019-05-12T01:01:23.786Z,70.73
2019-05-12T01:02:23.775Z,70.11
2019-05-12T01:03:23.789Z,70.21
2019-05-12T01:04:23.735Z,70.01
2019-05-12T01:05:23.725Z,70.94
2019-05-12T01:06:23.711Z,70.52
2019-05-12T01:07:23.750Z,70.04
2019-05-12T01:08:23.686Z,70.01
2019-05-12T01:09:23.678Z,70.14
2019-05-12T01:10:23.689Z,70.94
2019-05-12T01:11:23.719Z,70.76
2019-05-12T01:12:23.646Z,71.17
2019-05-12T01:13:23.679Z,70.86
2019-05-12T01:14:23.646Z,71.48
2019-05-12T01:15:23.723Z,70.76
2019-05-12T01:16:23.646Z,70.97
2019-05-12T01:17:23.594Z,71.41
2019-05-12T01:18:23.615Z,71.48
2019-05-12T01:19:23.568Z,71.72
2019-05-12T01:20:23.580Z,71.92
2019-05-12T01:21:23.615Z,71.92
2019-05-12T01:22:23.538Z,71.82
2019-05-12T01:23:23.765Z,71.89
2019-05-12T01:24:23.602Z,72.30
2019-05-12T01:25:23.505Z,71.92
2019-05-12T01:26:23.512Z,72.24
2019-05-12T01:27:23.479Z,71.82
2019-05-12T01:28:23.468Z,72.44
2019-05-12T01:29:23.525Z,72.24
2019-05-12T01:30:23.497Z,72.34
2019-05-12T01:31:23.443Z,72.64
2019-05-12T01:32:23.430Z,71.92
2019-05-12T01:33:23.424Z,72.34
2019-05-12T01:34:23.405Z,72.37
2019-05-12T01:35:23.443Z,72.68
2019-05-12T01:36:23.395Z,72.27
2019-05-12T01:37:23.379Z,73.19
2019-05-12T01:38:23.361Z,72.88
2019-05-12T01:39:23.351Z,73.09
2019-05-12T01:40:23.343Z,73.81
2019-05-12T01:41:23.397Z,74.02
2019-05-12T01:42:23.326Z,73.81
2019-05-12T01:43:23.307Z,73.91
2019-05-12T01:44:23.332Z,73.09
2019-05-12T01:45:23.302Z,73.19
2019-05-12T01:46:23.307Z,73.19
2019-05-12T01:47:23.280Z,73.19
2019-05-12T01:48:23.259Z,73.09
2019-05-12T01:49:23.236Z,72.88
2019-05-12T01:50:23.296Z,73.30
2019-05-12T01:51:23.219Z,74.02
2019-05-12T01:52:23.204Z,73.91
2019-05-12T01:53:23.217Z,73.91
2019-05-12T01:54:23.182Z,73.09
2019-05-12T01:55:23.169Z,72.58
2019-05-12T01:56:23.201Z,72.85
2019-05-12T01:57:23.194Z,73.06
2019-05-12T01:58:23.210Z,72.54
2019-05-12T01:59:23.130Z,72.68
2019-05-12T02:00:23.142Z,72.34
2019-05-12T02:01:23.159Z,72.44
2019-05-12T02:02:23.096Z,72.44
2019-05-12T02:03:23.104Z,72.24
2019-05-12T02:04:23.082Z,72.34
2019-05-12T02:05:23.056Z,72.44
2019-05-12T02:06:23.125Z,72.13
2019-05-12T02:07:23.038Z,72.44
2019-05-12T02:08:23.026Z,71.17
2019-05-12T02:09:23.017Z,71.89
2019-05-12T02:10:23.019Z,71.48
2019-05-12T02:11:22.993Z,72.09
2019-05-12T02:12:23.036Z,72.41
2019-05-12T02:13:22.968Z,72.20
2019-05-12T02:14:22.965Z,72.30
2019-05-12T02:15:22.945Z,72.51
2019-05-12T02:16:22.985Z,72.41
2019-05-12T02:17:22.935Z,72.20
2019-05-12T02:18:23.009Z,71.89
2019-05-12T02:19:22.945Z,71.72
2019-05-12T02:20:22.892Z,72.24
2019-05-12T02:21:22.885Z,72.44
2019-05-12T02:22:22.873Z,72.72
2019-05-12T02:23:22.951Z,72.92
2019-05-12T02:24:27.046Z,72.96
2019-05-12T02:25:23.832Z,72.44
2019-05-12T02:26:22.872Z,72.41
2019-05-12T02:27:22.874Z,72.44
2019-05-12T02:28:22.816Z,72.64
2019-05-12T02:29:22.800Z,72.54
2019-05-12T02:30:22.793Z,73.02
2019-05-12T02:31:22.773Z,73.98
2019-05-12T02:32:25.294Z,73.16
2019-05-12T02:33:24.416Z,73.78
2019-05-12T02:34:25.377Z,74.08
2019-05-12T02:35:24.775Z,73.78
2019-05-12T02:36:25.864Z,73.57
2019-05-12T02:37:26.038Z,73.57
2019-05-12T02:38:25.158Z,73.78
2019-05-12T02:39:24.893Z,73.88
2019-05-12T02:40:25.111Z,73.88
2019-05-12T02:41:25.658Z,74.12
2019-05-12T02:42:24.364Z,74.12
2019-05-12T02:43:24.460Z,74.43
2019-05-12T02:44:24.773Z,74.33
2019-05-12T02:45:25.274Z,74.33
2019-05-12T02:46:25.366Z,74.63
2019-05-12T02:47:24.188Z,74.22
2019-05-12T02:48:24.543Z,74.63
2019-05-12T02:49:24.435Z,74.74
2019-05-12T02:50:24.792Z,74.74
2019-05-12T02:51:24.832Z,74.53
2019-05-12T02:52:25.041Z,74.88
2019-05-12T02:53:24.847Z,74.95
2019-05-12T02:54:26.927Z,74.88
2019-05-12T02:55:25.701Z,75.29
2019-05-12T02:56:25.567Z,74.67
2019-05-12T02:57:25.620Z,74.46
2019-05-12T02:58:25.409Z,75.18
2019-05-12T02:59:25.126Z,74.95
2019-05-12T03:00:24.226Z,74.98
2019-05-12T03:01:24.362Z,75.08
2019-05-12T03:02:24.521Z,75.08
2019-05-12T03:03:25.129Z,75.12
2019-05-12T03:04:24.755Z,75.73
2019-05-12T03:05:24.891Z,76.21
2019-05-12T03:06:25.146Z,76.04
2019-05-12T03:07:25.214Z,76.25
2019-05-12T03:08:25.348Z,76.76
2019-05-12T03:09:24.449Z,75.94
2019-05-12T03:10:24.571Z,76.56
2019-05-12T03:11:24.850Z,76.35
2019-05-12T03:12:25.288Z,76.66
2019-05-12T03:13:25.051Z,77.08
2019-05-12T03:14:25.274Z,76.97
2019-05-12T03:15:25.095Z,77.52
2019-05-12T03:16:25.416Z,77.22
2019-05-12T03:17:25.217Z,77.11
2019-05-12T03:18:25.284Z,77.73
2019-05-12T03:19:25.043Z,77.97
2019-05-12T03:20:24.212Z,77.73
2019-05-12T03:21:24.468Z,77.97
2019-05-12T03:22:25.290Z,77.83
2019-05-12T03:23:24.838Z,78.14
2019-05-12T03:24:24.935Z,78.34
2019-05-12T03:25:29.020Z,78.49
2019-05-12T03:26:24.644Z,78.59
2019-05-12T03:27:25.425Z,78.49
2019-05-12T03:28:25.168Z,77.66
2019-05-12T03:29:24.889Z,78.24
2019-05-12T03:30:28.048Z,78.08
2019-05-12T03:31:30.578Z,77.76
2019-05-12T03:32:27.369Z,78.18
2019-05-12T03:33:33.351Z,78.18
2019-05-12T03:34:28.738Z,78.90
2019-05-12T03:35:32.210Z,78.90
2019-05-12T03:36:32.041Z,78.83
2019-05-12T03:37:30.964Z,78.73
2019-05-12T03:38:25.107Z,79.55
2019-05-12T03:39:24.818Z,78.63
2019-05-12T03:40:24.914Z,79.00
2019-05-12T03:41:24.887Z,78.73
2019-05-12T03:42:25.086Z,78.73
2019-05-12T03:43:24.383Z,78.83
2019-05-12T03:44:24.983Z,78.94
2019-05-12T03:45:24.889Z,79.04
2019-05-12T03:46:24.862Z,79.04
2019-05-12T03:47:24.792Z,78.83
2019-05-12T03:48:25.049Z,78.94
2019-05-12T03:49:24.477Z,78.83
2019-05-12T03:50:24.323Z,78.83
2019-05-12T03:51:25.096Z,78.69
2019-05-12T03:52:24.446Z,78.94
2019-05-12T03:53:24.657Z,78.69
2019-05-12T03:54:24.448Z,78.90
2019-05-12T03:55:34.991Z,78.73
2019-05-12T03:56:25.953Z,79.14
2019-05-12T03:57:21.821Z,79.00
2019-05-12T03:58:24.772Z,78.18
2019-05-12T03:59:21.803Z,79.14
2019-05-12T04:00:24.478Z,78.90
2019-05-12T04:01:25.171Z,78.59
2019-05-12T04:02:21.779Z,78.80
2019-05-12T04:03:24.428Z,78.90
2019-05-12T04:04:24.429Z,78.38
2019-05-12T04:05:24.318Z,78.80
2019-05-12T04:06:24.506Z,78.49
2019-05-12T04:07:24.364Z,78.94
2019-05-12T04:08:24.664Z,79.00
2019-05-12T04:09:24.359Z,78.94
2019-05-12T04:10:24.556Z,79.04
2019-05-12T04:11:24.877Z,78.90
2019-05-12T04:12:25.164Z,78.83
2019-05-12T04:13:21.660Z,78.69
2019-05-12T04:14:24.839Z,78.08
2019-05-12T04:15:21.632Z,79.00
2019-05-12T04:16:24.411Z,78.90
2019-05-12T04:17:24.383Z,78.90
2019-05-12T04:18:24.545Z,78.69
2019-05-12T04:19:24.694Z,78.49
2019-05-12T04:20:21.631Z,78.28
2019-05-12T04:21:24.101Z,78.90
2019-05-12T04:22:24.710Z,78.73
2019-05-12T04:23:24.529Z,78.59
2019-05-12T04:24:24.750Z,79.00
2019-05-12T04:25:24.763Z,78.90
2019-05-12T04:26:25.051Z,78.90
2019-05-12T04:27:21.541Z,78.69
2019-05-12T04:28:24.375Z,78.28
2019-05-12T04:29:24.801Z,77.94
2019-05-12T04:30:24.761Z,78.28
2019-05-12T04:31:24.477Z,78.66
2019-05-12T04:32:24.632Z,78.24
2019-05-12T04:33:21.420Z,78.04
2019-05-12T04:34:21.417Z,78.24
2019-05-12T04:35:21.405Z,78.14
2019-05-12T04:36:24.580Z,77.94
2019-05-12T04:37:21.399Z,77.48
2019-05-12T04:38:24.674Z,77.90
2019-05-12T04:39:21.366Z,77.28
2019-05-12T04:40:24.614Z,77.80
2019-05-12T04:41:21.344Z,77.59
2019-05-12T04:42:24.819Z,76.97
2019-05-12T04:43:25.072Z,76.93
2019-05-12T04:44:21.304Z,77.28
2019-05-12T04:45:21.321Z,77.28
2019-05-12T04:46:21.328Z,77.18
2019-05-12T04:47:21.272Z,76.73
2019-05-12T04:48:21.710Z,77.35
2019-05-12T04:49:24.684Z,76.83
2019-05-12T04:50:24.262Z,76.53
2019-05-12T04:51:21.225Z,77.04
2019-05-12T04:52:24.608Z,76.42
2019-05-12T04:53:24.870Z,76.39
2019-05-12T04:54:21.190Z,76.18
2019-05-12T04:55:21.181Z,77.21
2019-05-12T04:56:24.732Z,76.39
2019-05-12T04:57:21.484Z,75.97
2019-05-12T04:58:21.203Z,76.39
2019-05-12T04:59:21.143Z,76.18
2019-05-12T05:00:21.123Z,76.28
2019-05-12T05:01:21.115Z,76.70
2019-05-12T05:02:24.616Z,75.63
2019-05-12T05:03:21.103Z,76.56
2019-05-12T05:04:24.097Z,76.14
2019-05-12T05:05:21.076Z,75.73
2019-05-12T05:06:21.056Z,76.14
2019-05-12T05:07:24.195Z,76.04
2019-05-12T05:08:24.109Z,76.14
2019-05-12T05:09:21.093Z,75.94
2019-05-12T05:10:21.066Z,75.63
2019-05-12T05:11:21.007Z,75.73
2019-05-12T05:12:23.724Z,74.70
2019-05-12T05:13:20.988Z,75.63
2019-05-12T05:14:21.015Z,76.14
2019-05-12T05:15:21.022Z,76.45
2019-05-12T05:16:20.960Z,76.25
2019-05-12T05:17:20.946Z,76.14
2019-05-12T05:18:20.929Z,75.73
2019-05-12T05:19:20.921Z,75.80
2019-05-12T05:20:20.901Z,75.42
2019-05-12T05:21:20.961Z,75.80
2019-05-12T05:22:20.888Z,75.90
2019-05-12T05:23:20.883Z,75.70
2019-05-12T05:24:23.404Z,76.21
2019-05-12T05:25:20.899Z,75.49
2019-05-12T05:26:27.148Z,75.18
2019-05-12T05:27:21.838Z,74.74
2019-05-12T05:28:20.830Z,74.77
2019-05-12T05:29:20.844Z,75.49
2019-05-12T05:30:20.842Z,74.53
2019-05-12T05:31:20.789Z,74.43
2019-05-12T05:32:23.159Z,74.63
2019-05-12T05:33:20.786Z,74.22
2019-05-12T05:34:20.782Z,74.02
2019-05-12T05:35:20.737Z,74.12
2019-05-12T05:36:20.745Z,74.53
2019-05-12T05:37:20.730Z,73.40
2019-05-12T05:38:21.009Z,73.09
2019-05-12T05:39:20.689Z,72.68
2019-05-12T05:40:25.990Z,72.47
2019-05-12T05:41:23.926Z,72.47
2019-05-12T05:42:22.250Z,72.38
2019-05-12T05:43:24.030Z,72.55
2019-05-12T05:44:20.653Z,71.83
2019-05-12T05:45:24.240Z,72.38
2019-05-12T05:46:23.959Z,71.83
2019-05-12T05:47:25.601Z,72.06
2019-05-12T05:48:23.991Z,72.03
2019-05-12T05:49:20.604Z,71.55
2019-05-12T05:50:25.089Z,71.96
2019-05-12T05:51:23.710Z,72.03
2019-05-12T05:52:24.635Z,71.83
2019-05-12T05:53:21.561Z,71.72
2019-05-12T05:54:24.726Z,70.79
2019-05-12T05:55:23.331Z,70.70
2019-05-12T05:56:20.497Z,71.21
2019-05-12T05:57:25.717Z,70.49
2019-05-12T05:58:21.540Z,70.70
2019-05-12T05:59:24.098Z,70.52
2019-05-12T06:00:25.608Z,71.04
2019-05-12T06:01:20.505Z,70.70
2019-05-12T06:02:25.580Z,70.39
2019-05-12T06:03:27.193Z,70.90
2019-05-12T06:04:23.661Z,71.11
2019-05-12T06:05:26.439Z,71.72
2019-05-12T06:06:23.647Z,71.41
2019-05-12T06:07:23.821Z,71.11
2019-05-12T06:08:23.694Z,71.31
2019-05-12T06:09:20.402Z,70.39
2019-05-12T06:10:20.347Z,70.70
2019-05-12T06:11:26.556Z,71.96
2019-05-12T06:12:21.321Z,71.21
2019-05-12T06:13:21.211Z,70.90
2019-05-12T06:14:23.061Z,71.08
2019-05-12T06:15:20.294Z,71.28
2019-05-12T06:16:22.837Z,71.79
2019-05-12T06:17:20.271Z,70.84
2019-05-12T06:18:20.268Z,71.79
2019-05-12T06:19:23.478Z,71.17
2019-05-12T06:20:21.223Z,70.36
2019-05-12T06:21:20.232Z,70.56
2019-05-12T06:22:20.199Z,70.15
2019-05-12T06:23:20.202Z,70.36
2019-05-12T06:24:20.339Z,70.46
2019-05-12T06:25:20.235Z,70.15
2019-05-12T06:26:21.090Z,70.18
2019-05-12T06:27:21.319Z,70.18
2019-05-12T06:28:20.167Z,70.04
2019-05-12T06:29:21.993Z,70.15
2019-05-12T06:30:20.116Z,69.74
2019-05-12T06:31:25.167Z,70.15
2019-05-12T06:32:21.164Z,69.94
2019-05-12T06:33:22.714Z,69.94
2019-05-12T06:34:21.232Z,70.25
2019-05-12T06:35:20.072Z,70.22
2019-05-12T06:36:21.983Z,69.81
2019-05-12T06:37:20.102Z,69.29
2019-05-12T06:38:20.025Z,69.40
2019-05-12T06:39:20.880Z,68.65
2019-05-12T06:40:20.007Z,68.68
2019-05-12T06:41:21.311Z,68.68
2019-05-12T06:42:19.980Z,68.44
2019-05-12T06:43:20.043Z,68.57
2019-05-12T06:44:20.010Z,67.86
2019-05-12T06:45:19.941Z,68.57
2019-05-12T06:46:22.908Z,68.78
2019-05-12T06:47:19.942Z,68.65
2019-05-12T06:48:28.438Z,68.75
2019-05-12T06:49:20.916Z,68.65
2019-05-12T06:50:19.887Z,68.24
2019-05-12T06:51:23.652Z,68.03
2019-05-12T06:52:20.953Z,67.72
2019-05-12T06:53:24.961Z,67.21
2019-05-12T06:54:20.861Z,66.70
2019-05-12T06:55:19.837Z,68.13
2019-05-12T06:56:20.049Z,68.44
2019-05-12T06:57:25.317Z,68.44
2019-05-12T06:58:26.522Z,68.72
2019-05-12T06:59:21.542Z,67.38
2019-05-12T07:00:22.252Z,68.10
2019-05-12T07:01:20.820Z,66.43
2019-05-12T07:02:19.787Z,67.49
2019-05-12T07:03:26.168Z,67.28
2019-05-12T07:04:21.902Z,67.18
2019-05-12T07:05:19.733Z,67.49
2019-05-12T07:06:20.087Z,66.56
2019-05-12T07:07:19.696Z,67.08
2019-05-12T07:08:26.504Z,66.87
2019-05-12T07:09:25.045Z,66.43
2019-05-12T07:10:36.877Z,65.71
2019-05-12T07:11:20.656Z,65.92
2019-05-12T07:12:24.887Z,65.10
2019-05-12T07:13:24.987Z,65.27
2019-05-12T07:14:22.892Z,65.27
2019-05-12T07:15:20.694Z,65.27
2019-05-12T07:16:26.749Z,65.37
2019-05-12T07:17:20.581Z,65.17
2019-05-12T07:18:24.338Z,65.55
2019-05-12T07:19:22.747Z,65.04
2019-05-12T07:20:19.624Z,64.01
2019-05-12T07:21:22.109Z,63.84
2019-05-12T07:22:22.756Z,63.94
2019-05-12T07:23:26.012Z,64.56
2019-05-12T07:24:20.518Z,64.04
2019-05-12T07:25:24.513Z,63.60
2019-05-12T07:26:20.489Z,63.20
2019-05-12T07:27:32.247Z,63.81
2019-05-12T07:28:20.459Z,63.70
2019-05-12T07:29:19.531Z,63.60
2019-05-12T07:30:19.435Z,63.29
2019-05-12T07:31:19.426Z,62.17
2019-05-12T07:32:21.776Z,61.76
2019-05-12T07:33:20.409Z,61.25
2019-05-12T07:34:19.449Z,61.45
2019-05-12T07:35:19.441Z,61.66
2019-05-12T07:36:19.364Z,61.25
2019-05-12T07:37:19.422Z,60.81
2019-05-12T07:38:21.371Z,59.07
2019-05-12T07:39:19.363Z,58.86
2019-05-12T07:40:25.782Z,59.48
2019-05-12T07:41:20.313Z,59.35
2019-05-12T07:42:24.800Z,57.81
2019-05-12T07:43:20.882Z,55.33
2019-05-12T07:44:22.040Z,54.72
2019-05-12T07:45:22.351Z,55.51
2019-05-12T07:46:19.258Z,56.43
2019-05-12T07:47:24.608Z,56.43
2019-05-12T07:48:20.223Z,56.51
2019-05-12T07:49:23.588Z,54.26
2019-05-12T07:50:23.868Z,54.36
2019-05-12T07:51:20.285Z,54.97
2019-05-12T07:52:19.247Z,53.75
2019-05-12T07:53:19.199Z,54.39
2019-05-12T07:54:19.187Z,53.98
2019-05-12T07:55:19.180Z,54.39
2019-05-12T07:56:19.579Z,55.30
2019-05-12T07:57:20.209Z,55.21
2019-05-12T07:58:19.618Z,55.02
2019-05-12T07:59:19.103Z,54.69
2019-05-12T08:00:25.183Z,54.97
2019-05-12T08:01:20.149Z,53.26
2019-05-12T08:02:23.182Z,53.57
2019-05-12T08:03:21.362Z,54.08
2019-05-12T08:04:19.047Z,53.59
2019-05-12T08:05:21.230Z,54.03
2019-05-12T08:06:19.041Z,55.02
2019-05-12T08:07:19.788Z,53.36
2019-05-12T08:08:20.000Z,53.26
2019-05-12T08:09:24.280Z,52.65
2019-05-12T08:10:20.317Z,53.28
2019-05-12T08:11:18.964Z,53.59
2019-05-12T08:12:20.983Z,52.65
2019-05-12T08:13:18.975Z,51.32
2019-05-12T08:14:25.922Z,51.62
2019-05-12T08:15:19.925Z,52.24
2019-05-12T08:16:19.536Z,52.62
2019-05-12T08:17:19.920Z,52.11
2019-05-12T08:18:18.944Z,51.40
2019-05-12T08:19:23.828Z,52.52
2019-05-12T08:20:19.871Z,51.19
2019-05-12T08:21:18.925Z,51.60
2019-05-12T08:22:24.043Z,51.42
2019-05-12T08:23:19.832Z,52.24
2019-05-12T08:24:18.851Z,52.24
2019-05-12T08:25:23.676Z,52.24
2019-05-12T08:26:19.803Z,52.24
2019-05-12T08:27:18.853Z,52.75
2019-05-12T08:28:19.571Z,52.22
2019-05-12T08:29:21.526Z,52.22
2019-05-12T08:30:18.768Z,52.93
2019-05-12T08:31:25.831Z,52.70
2019-05-12T08:32:20.406Z,51.76
2019-05-12T08:33:18.759Z,51.45
2019-05-12T08:34:18.707Z,51.48
2019-05-12T08:35:25.549Z,51.45
2019-05-12T08:36:19.768Z,51.15
2019-05-12T08:37:18.685Z,50.84
2019-05-12T08:38:18.658Z,51.45
2019-05-12T08:39:22.878Z,51.48
2019-05-12T08:40:19.671Z,51.32
2019-05-12T08:41:18.666Z,51.32
2019-05-12T08:42:18.686Z,51.43
2019-05-12T08:43:18.654Z,51.45
2019-05-12T08:44:24.917Z,50.53
2019-05-12T08:45:25.196Z,51.35
2019-05-12T08:46:19.574Z,52.06
2019-05-12T08:47:18.570Z,51.76
2019-05-12T08:48:21.634Z,51.15
2019-05-12T08:49:19.541Z,50.74
2019-05-12T08:50:23.065Z,52.06
2019-05-12T08:51:20.237Z,51.96
2019-05-12T08:52:18.510Z,50.66
2019-05-12T08:53:20.678Z,51.48
2019-05-12T08:54:18.541Z,52.50
2019-05-12T08:55:25.046Z,52.52
2019-05-12T08:56:22.947Z,53.23
2019-05-12T08:57:19.472Z,53.34
2019-05-12T08:58:30.154Z,53.64
2019-05-12T08:59:24.209Z,53.21
2019-05-12T09:00:19.421Z,53.21
2019-05-12T09:01:20.409Z,52.52
2019-05-12T09:02:19.391Z,52.72
2019-05-12T09:03:20.581Z,52.52
2019-05-12T09:04:19.373Z,53.13
2019-05-12T09:05:18.356Z,52.72
2019-05-12T09:06:19.905Z,52.95
2019-05-12T09:07:18.483Z,53.16
2019-05-12T09:08:18.359Z,53.16
2019-05-12T09:09:18.359Z,52.03
2019-05-12T09:10:18.310Z,52.95
2019-05-12T09:11:18.331Z,52.65
2019-05-12T09:12:18.345Z,53.06
2019-05-12T09:13:18.272Z,52.75
2019-05-12T09:14:18.269Z,53.16
2019-05-12T09:15:18.294Z,53.03
2019-05-12T09:16:18.291Z,53.03
2019-05-12T09:17:18.216Z,52.80
2019-05-12T09:18:18.982Z,52.58
2019-05-12T09:19:23.903Z,51.25
2019-05-12T09:20:19.200Z,50.94
2019-05-12T09:21:18.239Z,50.23
2019-05-12T09:22:20.931Z,51.45
2019-05-12T09:23:18.250Z,50.71
2019-05-12T09:24:21.597Z,50.99
2019-05-12T09:25:18.148Z,49.67
2019-05-12T09:26:18.671Z,49.98
2019-05-12T09:27:19.204Z,50.59
2019-05-12T09:28:18.098Z,50.38
2019-05-12T09:29:18.191Z,49.77
2019-05-12T09:30:18.127Z,50.26
2019-05-12T09:31:19.330Z,50.87
2019-05-12T09:32:19.045Z,50.05
2019-05-12T09:33:21.310Z,50.59
2019-05-12T09:34:19.081Z,50.69
2019-05-12T09:35:18.053Z,51.38
2019-05-12T09:36:20.262Z,50.77
2019-05-12T09:37:18.000Z,51.30
2019-05-12T09:38:22.860Z,51.51
2019-05-12T09:39:19.030Z,51.20
2019-05-12T09:40:20.740Z,51.51
2019-05-12T09:41:18.033Z,52.34
2019-05-12T09:42:19.252Z,52.45
2019-05-12T09:43:18.940Z,52.75
2019-05-12T09:44:20.321Z,52.55
2019-05-12T09:45:18.907Z,52.04
2019-05-12T09:46:17.901Z,51.53
2019-05-12T09:47:23.018Z,51.63
2019-05-12T09:48:18.888Z,50.71
2019-05-12T09:49:25.009Z,50.74
2019-05-12T09:50:20.423Z,50.81
2019-05-12T09:51:17.838Z,51.35
2019-05-12T09:52:22.355Z,50.94
2019-05-12T09:53:18.858Z,51.65
2019-05-12T09:54:17.844Z,51.45
2019-05-12T09:55:17.802Z,50.81
2019-05-12T09:56:17.851Z,51.02
2019-05-12T09:57:17.791Z,51.02
2019-05-12T09:58:23.243Z,50.99
2019-05-12T09:59:22.922Z,50.87
2019-05-12T10:00:18.755Z,50.05
2019-05-12T10:01:17.846Z,48.60
2019-05-12T10:02:20.680Z,46.97
2019-05-12T10:03:17.752Z,47.69
2019-05-12T10:04:19.570Z,47.05
2019-05-12T10:05:17.688Z,46.62
2019-05-12T10:06:21.149Z,47.24
2019-05-12T10:07:17.682Z,47.05
2019-05-12T10:08:17.682Z,48.48
2019-05-12T10:09:19.936Z,48.07
2019-05-12T10:10:17.649Z,48.38
2019-05-12T10:11:20.802Z,47.79
2019-05-12T10:12:17.603Z,48.96
2019-05-12T10:13:20.359Z,49.57
2019-05-12T10:14:18.591Z,49.57
2019-05-12T10:15:18.767Z,49.05
2019-05-12T10:16:18.567Z,48.73
2019-05-12T10:17:20.342Z,48.83
2019-05-12T10:18:18.597Z,47.99
2019-05-12T10:19:17.540Z,47.28
2019-05-12T10:20:17.512Z,47.56
2019-05-12T10:21:17.696Z,47.56
2019-05-12T10:22:17.553Z,47.44
2019-05-12T10:23:20.171Z,47.52
2019-05-12T10:24:18.519Z,45.18
2019-05-12T10:25:17.462Z,45.97
2019-05-12T10:26:17.452Z,47.52
2019-05-12T10:27:21.231Z,47.52
2019-05-12T10:28:18.488Z,48.13
2019-05-12T10:29:20.675Z,47.82
2019-05-12T10:30:17.769Z,47.01
2019-05-12T10:31:18.812Z,47.34
2019-05-12T10:32:17.405Z,47.87
2019-05-12T10:33:17.389Z,47.05
2019-05-12T10:34:17.420Z,47.97
2019-05-12T10:35:21.971Z,47.87
2019-05-12T10:36:18.330Z,46.44
2019-05-12T10:37:19.282Z,47.56
2019-05-12T10:38:18.307Z,47.69
2019-05-12T10:39:17.306Z,46.87
2019-05-12T10:40:17.304Z,47.87
2019-05-12T10:41:17.275Z,47.03
2019-05-12T10:42:17.264Z,47.03
2019-05-12T10:43:17.452Z,47.44
2019-05-12T10:44:17.239Z,46.60
2019-05-12T10:45:20.454Z,45.15
2019-05-12T10:46:18.484Z,47.19
2019-05-12T10:47:18.265Z,45.67
2019-05-12T10:48:17.220Z,45.34
2019-05-12T10:49:17.190Z,47.37
2019-05-12T10:50:17.177Z,47.37
2019-05-12T10:51:17.212Z,45.52
2019-05-12T10:52:17.150Z,45.24
2019-05-12T10:53:17.950Z,45.26
2019-05-12T10:54:17.200Z,44.04
2019-05-12T10:55:17.123Z,45.15
2019-05-12T10:56:17.173Z,45.26
2019-05-12T10:57:17.099Z,45.11
2019-05-12T10:58:17.129Z,45.40
2019-05-12T10:59:28.990Z,45.50
2019-05-12T11:00:25.116Z,45.07
2019-05-12T11:01:18.108Z,44.20
2019-05-12T11:02:20.583Z,45.97
2019-05-12T11:03:18.050Z,46.89
2019-05-12T11:04:17.034Z,46.17
2019-05-12T11:05:21.251Z,46.86
2019-05-12T11:06:17.999Z,47.39
2019-05-12T11:07:17.049Z,47.47
2019-05-12T11:08:16.971Z,47.90
2019-05-12T11:09:21.301Z,45.97
2019-05-12T11:10:20.032Z,47.39
2019-05-12T11:11:16.957Z,46.15
2019-05-12T11:12:19.102Z,45.87
2019-05-12T11:13:18.246Z,45.36
2019-05-12T11:14:20.327Z,46.56
2019-05-12T11:15:17.905Z,47.06
2019-05-12T11:16:17.154Z,46.33
2019-05-12T11:17:18.290Z,45.32
2019-05-12T11:18:20.461Z,43.90
2019-05-12T11:19:17.943Z,44.10
2019-05-12T11:20:16.864Z,44.12
2019-05-12T11:21:16.833Z,43.71
2019-05-12T11:22:16.813Z,44.53
2019-05-12T11:23:16.848Z,43.91
2019-05-12T11:24:16.842Z,43.69
2019-05-12T11:25:16.847Z,43.81
2019-05-12T11:26:16.837Z,43.73
2019-05-12T11:27:16.760Z,43.71
2019-05-12T11:28:16.767Z,44.34
2019-05-12T11:29:16.755Z,43.12
2019-05-12T11:30:16.767Z,43.71
2019-05-12T11:31:16.905Z,43.61
2019-05-12T11:32:17.751Z,43.41
2019-05-12T11:33:16.699Z,44.02
2019-05-12T11:34:16.725Z,43.71
2019-05-12T11:35:16.715Z,41.94
2019-05-12T11:36:16.662Z,42.37
2019-05-12T11:37:16.654Z,42.37
2019-05-12T11:38:16.644Z,43.91
2019-05-12T11:39:16.660Z,44.02
2019-05-12T11:40:16.672Z,43.61
2019-05-12T11:41:20.191Z,43.79
2019-05-12T11:42:16.640Z,43.37
2019-05-12T11:43:16.584Z,43.26
2019-05-12T11:44:16.567Z,43.44
2019-05-12T11:45:16.660Z,42.43
2019-05-12T11:46:16.595Z,43.24
2019-05-12T11:47:23.802Z,43.87
2019-05-12T11:48:17.530Z,43.44
2019-05-12T11:49:21.651Z,42.63
2019-05-12T11:50:17.516Z,41.91
2019-05-12T11:51:20.740Z,43.12
2019-05-12T11:52:19.371Z,43.00
2019-05-12T11:53:16.555Z,42.98
2019-05-12T11:54:16.478Z,42.37
2019-05-12T11:55:21.325Z,40.75
2019-05-12T11:56:17.441Z,40.69
2019-05-12T11:57:20.039Z,41.11
2019-05-12T11:58:17.485Z,41.52
2019-05-12T11:59:16.404Z,41.19
2019-05-12T12:00:16.448Z,41.60
2019-05-12T12:01:16.391Z,41.48
2019-05-12T12:02:20.200Z,41.28
2019-05-12T12:03:18.347Z,41.28
2019-05-12T12:04:16.354Z,41.05
2019-05-12T12:05:16.339Z,40.55
2019-05-12T12:06:16.398Z,41.99
2019-05-12T12:07:16.316Z,42.07
2019-05-12T12:08:16.330Z,42.07
2019-05-12T12:09:18.905Z,40.75
2019-05-12T12:10:16.298Z,40.06
2019-05-12T12:11:22.058Z,39.64
2019-05-12T12:12:17.272Z,40.16
2019-05-12T12:13:19.370Z,40.95
2019-05-12T12:14:17.252Z,41.14
2019-05-12T12:15:20.290Z,40.29
2019-05-12T12:16:17.227Z,39.66
2019-05-12T12:17:16.349Z,37.92
2019-05-12T12:18:16.253Z,39.68
2019-05-12T12:19:16.180Z,39.50
2019-05-12T12:20:22.396Z,40.31
2019-05-12T12:21:17.223Z,40.91
2019-05-12T12:22:20.255Z,40.20
2019-05-12T12:23:17.170Z,39.68
2019-05-12T12:24:16.135Z,39.76
2019-05-12T12:25:16.133Z,39.66
2019-05-12T12:26:20.073Z,39.98
2019-05-12T12:27:16.155Z,40.81
2019-05-12T12:28:16.182Z,40.24
2019-05-12T12:29:16.066Z,40.65
2019-05-12T12:30:19.759Z,41.24
2019-05-12T12:31:16.042Z,40.73
2019-05-12T12:32:20.171Z,41.03
2019-05-12T12:33:16.022Z,40.09
2019-05-12T12:34:23.970Z,38.97
2019-05-12T12:35:17.008Z,40.73
2019-05-12T12:36:16.011Z,40.49
2019-05-12T12:37:18.890Z,38.75
2019-05-12T12:38:17.030Z,38.65
2019-05-12T12:39:15.998Z,37.86
2019-05-12T12:40:15.953Z,39.80
2019-05-12T12:41:15.933Z,38.18
2019-05-12T12:42:16.002Z,38.06
2019-05-12T12:43:15.907Z,38.45
2019-05-12T12:44:15.909Z,38.35
2019-05-12T12:45:15.906Z,38.14
2019-05-12T12:46:17.982Z,38.33
2019-05-12T12:47:16.879Z,38.51
2019-05-12T12:48:19.386Z,38.24
2019-05-12T12:49:16.893Z,37.82
2019-05-12T12:50:20.202Z,37.72
2019-05-12T12:51:17.544Z,38.01
2019-05-12T12:52:15.855Z,37.48